Time;durP1;ratioP1;P1;durP2;ratioP2;P2;SDS_P1;SDS_P2;PMS_P1;PMS_P2;Temp;Humidity;BMP_temperature;BMP_pressure;BME280_temperature;BME280_humidity;BME280_pressure;Samples;Min_cycle;Max_cycle;Signal;HPM_P1;HPM_P2
2022/08/12 00:44:28;;;;;;;9.95;6.15;;;18.40;99.90;;;;;;5111458;28;20139;-65
2022/08/12 00:46:59;;;;;;;9.57;6.45;;;18.30;99.90;;;;;;5094845;28;20049;-65
2022/08/12 00:49:27;;;;;;;10.10;5.75;;;18.30;99.90;;;;;;5111208;28;20832;-65
2022/08/12 00:52:10;;;;;;;7.72;5.35;;;18.20;99.90;;;;;;5094043;28;20052;-66
2022/08/12 00:54:38;;;;;;;7.03;5.47;;;18.20;99.90;;;;;;5110876;28;20062;-69
2022/08/12 00:57:10;;;;;;;8.27;5.70;;;18.10;99.90;;;;;;5094323;28;20048;-65
2022/08/12 00:59:47;;;;;;;8.05;6.07;;;18.10;99.90;;;;;;5084416;28;20044;-65
2022/08/12 01:02:22;;;;;;;10.88;6.97;;;18.10;99.90;;;;;;5106812;28;20052;-65
2022/08/12 01:13:16;;;;;;;15.68;9.70;;;18.00;99.90;;;;;;5105181;28;20503;-65
2022/08/12 01:15:46;;;;;;;15.15;10.13;;;17.90;99.90;;;;;;5107473;28;20098;-65
2022/08/12 01:18:13;;;;;;;11.00;8.65;;;17.90;99.90;;;;;;5110998;28;20051;-65
2022/08/12 01:21:11;;;;;;;16.73;8.98;;;17.90;99.90;;;;;;5110921;28;20055;-65
2022/08/12 01:23:42;;;;;;;10.93;8.10;;;17.80;99.90;;;;;;5073076;28;20047;-66
2022/08/12 01:26:09;;;;;;;11.40;8.45;;;17.80;99.90;;;;;;5104279;28;20048;-65
2022/08/12 01:28:36;;;;;;;13.13;8.07;;;17.80;99.90;;;;;;5103780;28;20040;-66
2022/08/12 01:31:04;;;;;;;9.70;7.20;;;17.70;99.90;;;;;;5077789;28;20051;-65
2022/08/12 01:33:38;;;;;;;9.43;7.70;;;17.70;99.90;;;;;;5110787;28;20087;-65
2022/08/12 01:36:08;;;;;;;8.75;6.95;;;17.70;99.90;;;;;;5093728;28;20483;-65
2022/08/12 01:38:35;;;;;;;15.05;8.02;;;17.60;99.90;;;;;;5094498;28;20142;-65
2022/08/12 01:41:02;;;;;;;9.52;8.07;;;17.60;99.90;;;;;;5110501;28;20605;-65
2022/08/12 01:43:29;;;;;;;11.98;7.88;;;17.60;99.90;;;;;;5093808;28;20471;-64
2022/08/12 01:46:08;;;;;;;8.35;7.28;;;17.60;99.90;;;;;;5111072;28;20416;-65
2022/08/12 01:49:06;;;;;;;7.65;6.90;;;17.50;99.90;;;;;;5111903;28;20475;-65
2022/08/12 01:51:42;;;;;;;8.93;6.30;;;17.50;99.90;;;;;;5110922;28;20054;-65
2022/08/12 01:54:38;;;;;;;12.25;6.60;;;17.40;99.90;;;;;;5111325;28;20550;-65
2022/08/12 01:57:23;;;;;;;8.48;7.05;;;17.40;99.90;;;;;;5110264;28;20407;-65
2022/08/12 02:00:12;;;;;;;10.23;6.32;;;17.40;99.90;;;;;;5090643;28;20056;-65
2022/08/12 02:02:58;;;;;;;;;;;17.30;99.90;;;;;;5075817;28;20406;-65
2022/08/12 02:12:24;;;;;;;10.43;7.20;;;17.20;99.90;;;;;;5080334;28;20165;-65
2022/08/12 02:15:12;;;;;;;9.13;6.53;;;17.20;99.90;;;;;;5093870;28;20563;-65
2022/08/12 02:18:21;;;;;;;10.50;7.50;;;17.20;99.90;;;;;;5078553;28;20044;-65
2022/08/12 02:20:52;;;;;;;9.15;6.70;;;17.10;99.90;;;;;;5093616;28;20396;-66
2022/08/12 02:23:22;;;;;;;13.10;7.05;;;17.10;99.90;;;;;;5093465;28;20055;-65
2022/08/12 02:25:49;;;;;;;;;;;17.10;99.90;;;;;;5093732;28;20544;-66
2022/08/12 02:28:16;;;;;;;10.32;6.30;;;17.00;99.90;;;;;;5103751;28;20010;-66
2022/08/12 02:30:42;;;;;;;8.77;6.28;;;17.00;99.90;;;;;;5113979;28;20048;-65
2022/08/12 02:33:09;;;;;;;7.63;5.47;;;17.00;99.90;;;;;;5113802;28;20055;-65
2022/08/12 02:35:38;;;;;;;7.63;5.80;;;17.00;99.90;;;;;;5114411;28;20054;-66
2022/08/12 02:38:08;;;;;;;8.32;6.00;;;17.00;99.90;;;;;;5080713;28;20039;-65
2022/08/12 02:40:40;;;;;;;13.27;6.65;;;17.00;99.90;;;;;;5096560;28;20487;-65
2022/08/12 02:43:55;;;;;;;7.13;5.72;;;17.00;99.90;;;;;;5096571;28;20059;-65
2022/08/12 02:46:28;;;;;;;8.75;6.35;;;17.00;99.90;;;;;;5092213;28;20403;-65
2022/08/12 02:49:04;;;;;;;8.98;6.13;;;16.90;99.90;;;;;;5080124;28;20048;-65
2022/08/12 02:51:33;;;;;;;8.15;6.03;;;16.90;99.90;;;;;;5113166;28;20070;-66
2022/08/12 02:54:02;;;;;;;8.60;6.35;;;16.90;99.90;;;;;;5096525;28;20059;-65
2022/08/12 02:56:36;;;;;;;6.97;6.07;;;16.90;99.90;;;;;;5112862;28;20043;-65
2022/08/12 02:59:04;;;;;;;8.35;6.30;;;16.80;99.90;;;;;;5111193;28;20048;-65
2022/08/12 03:01:32;;;;;;;6.70;6.03;;;16.80;99.90;;;;;;5093891;28;20496;-65
2022/08/12 03:04:01;;;;;;;10.35;6.47;;;16.80;99.90;;;;;;5076237;28;20114;-66
2022/08/12 03:06:39;;;;;;;6.70;5.85;;;16.80;99.90;;;;;;5092240;28;20503;-65
2022/08/12 03:09:06;;;;;;;7.93;5.88;;;16.80;99.90;;;;;;5093163;28;20052;-65
2022/08/12 03:11:38;;;;;;;6.50;5.77;;;16.70;99.90;;;;;;5059886;28;20048;-65
2022/08/12 03:14:14;;;;;;;7.25;6.40;;;16.70;99.90;;;;;;5093191;28;20446;-64
2022/08/12 03:16:41;;;;;;;8.32;6.07;;;16.70;99.90;;;;;;5062978;28;20514;-65
2022/08/12 03:19:08;;;;;;;6.60;5.82;;;16.60;99.90;;;;;;5093599;28;20058;-68
2022/08/12 03:21:38;;;;;;;7.20;6.18;;;16.60;99.90;;;;;;5095601;28;20058;-65
2022/08/12 03:24:26;;;;;;;9.98;6.10;;;16.60;99.90;;;;;;5113268;28;20437;-65
2022/08/12 03:26:53;;;;;;;10.50;7.03;;;16.50;99.90;;;;;;5112472;28;20079;-65
2022/08/12 03:29:29;;;;;;;10.02;6.57;;;16.50;99.90;;;;;;5112322;28;20124;-65
2022/08/12 03:32:02;;;;;;;7.97;6.20;;;16.50;99.90;;;;;;5080215;28;20060;-65
2022/08/12 03:34:32;;;;;;;8.02;6.25;;;16.40;99.90;;;;;;5080090;28;20052;-65
2022/08/12 03:37:01;;;;;;;8.55;6.18;;;16.40;99.90;;;;;;5089325;28;20395;-65
2022/08/12 03:42:07;;;;;;;9.18;6.22;;;16.40;99.90;;;;;;5076347;28;20044;-65
2022/08/12 04:01:21;;;;;;;8.90;6.55;;;16.20;99.90;;;;;;5091817;28;20052;-65
2022/08/12 04:03:52;;;;;;;9.10;6.55;;;16.20;99.90;;;;;;5091355;28;20044;-65
2022/08/12 04:06:22;;;;;;;8.30;6.45;;;16.20;99.90;;;;;;5091297;28;20515;-65
2022/08/12 04:09:00;;;;;;;8.57;6.18;;;16.10;99.90;;;;;;5091729;28;20109;-65
2022/08/12 04:14:21;;;;;;;7.07;5.47;;;16.10;99.90;;;;;;5092384;28;20056;-65
2022/08/12 04:16:49;;;;;;;7.30;5.43;;;16.00;99.90;;;;;;5091684;28;20055;-66
2022/08/12 04:19:16;;;;;;;8.48;6.32;;;16.00;99.90;;;;;;5095071;28;20043;-65
2022/08/12 04:21:44;;;;;;;10.95;7.18;;;16.00;99.90;;;;;;5111700;28;20040;-64
2022/08/12 04:24:35;;;;;;;9.88;6.43;;;16.00;99.90;;;;;;5111671;28;20048;-65
2022/08/12 04:27:08;;;;;;;8.48;6.13;;;16.00;99.90;;;;;;5112883;28;20506;-65
2022/08/12 04:29:36;;;;;;;8.02;6.80;;;16.00;99.90;;;;;;5101767;28;20475;-65
2022/08/12 04:32:26;;;;;;;7.75;6.97;;;16.00;99.90;;;;;;5097702;28;20044;-64
2022/08/12 04:34:53;;;;;;;7.93;6.63;;;16.00;99.90;;;;;;5112739;28;20060;-64
2022/08/12 04:37:20;;;;;;;8.15;6.45;;;16.00;99.90;;;;;;5094218;28;20044;-65
2022/08/12 04:39:47;;;;;;;7.93;5.80;;;15.90;99.90;;;;;;5077909;28;20051;-65
2022/08/12 04:42:14;;;;;;;8.48;6.35;;;15.90;99.90;;;;;;5111066;28;20054;-65
2022/08/12 04:44:42;;;;;;;10.05;6.75;;;15.90;99.90;;;;;;5111110;28;20043;-65
2022/08/12 04:47:12;;;;;;;11.48;7.25;;;15.90;99.90;;;;;;5094260;28;20051;-65
2022/08/12 04:49:40;;;;;;;8.35;6.43;;;15.90;99.90;;;;;;5111295;28;20047;-65
2022/08/12 04:52:07;;;;;;;12.40;6.63;;;15.90;99.90;;;;;;5112471;28;20070;-64
2022/08/12 04:54:34;;;;;;;9.73;6.30;;;15.90;99.90;;;;;;5110990;28;20596;-64
2022/08/12 04:57:01;;;;;;;7.93;6.25;;;15.90;99.90;;;;;;5111471;28;20073;-65
2022/08/12 04:59:33;;;;;;;;;;;15.90;99.90;;;;;;5106739;28;20036;-65
2022/08/12 05:02:17;;;;;;;7.68;6.28;;;15.90;99.90;;;;;;5091884;28;19928;-65
2022/08/12 05:04:51;;;;;;;12.38;6.18;;;15.90;99.90;;;;;;5091091;28;20147;-65
2022/08/12 05:07:19;;;;;;;7.55;6.10;;;15.90;99.90;;;;;;5090878;28;20056;-65
2022/08/12 05:09:46;;;;;;;8.43;6.05;;;15.90;99.90;;;;;;5074529;28;20135;-65
2022/08/12 05:12:31;;;;;;;8.02;6.32;;;15.90;99.90;;;;;;5090727;28;20048;-65
2022/08/12 05:14:59;;;;;;;8.35;6.07;;;16.00;99.90;;;;;;5091274;28;20062;-65
2022/08/12 05:17:26;;;;;;;7.40;5.47;;;16.10;99.90;;;;;;5095155;28;20049;-65
2022/08/12 05:19:54;;;;;;;7.35;6.28;;;16.10;99.90;;;;;;5111456;28;20046;-65
2022/08/12 05:22:26;;;;;;;11.07;6.40;;;16.20;99.90;;;;;;5110592;28;20044;-65
2022/08/12 05:24:53;;;;;;;11.02;6.75;;;16.50;99.90;;;;;;5108661;28;20043;-65
2022/08/12 05:27:21;;;;;;;8.43;5.68;;;16.70;99.90;;;;;;5110701;28;20044;-64
2022/08/12 05:29:48;;;;;;;7.50;5.53;;;17.00;99.90;;;;;;5110162;28;20040;-65
2022/08/12 05:32:34;;;;;;;8.00;5.28;;;17.10;99.90;;;;;;5112400;28;20498;-65
2022/08/12 05:35:14;;;;;;;6.70;5.65;;;17.40;99.90;;;;;;5111289;28;20065;-65
2022/08/12 05:37:41;;;;;;;7.85;5.32;;;17.80;99.90;;;;;;5112169;28;20483;-65
2022/08/12 05:40:09;;;;;;;6.57;5.40;;;18.10;99.90;;;;;;5116042;28;20071;-65
2022/08/12 05:42:37;;;;;;;6.03;4.70;;;18.40;99.90;;;;;;5115758;28;20039;-65
2022/08/12 05:45:05;;;;;;;10.75;5.50;;;18.60;99.90;;;;;;5097648;28;20059;-64
2022/08/12 05:47:32;;;;;;;8.00;5.68;;;18.60;99.90;;;;;;5116219;28;20134;-67
2022/08/12 05:50:18;;;;;;;6.78;5.05;;;18.70;99.90;;;;;;5100156;28;20047;-65
2022/08/12 05:52:45;;;;;;;8.23;6.10;;;18.90;99.90;;;;;;5114149;28;20044;-65
2022/08/12 05:55:14;;;;;;;7.23;5.80;;;18.90;99.90;;;;;;5081267;28;20047;-65
2022/08/12 05:57:47;;;;;;;12.73;6.53;;;18.90;99.90;;;;;;5114275;28;20050;-65
2022/08/12 06:00:16;;;;;;;6.97;5.90;;;18.80;99.90;;;;;;5102714;28;20554;-65
2022/08/12 06:02:45;;;;;;;8.38;5.60;;;18.80;99.90;;;;;;5077619;28;20044;-65
2022/08/12 06:05:12;;;;;;;;;;;18.70;99.90;;;;;;5095419;28;20059;-65
2022/08/12 06:07:41;;;;;;;8.70;6.85;;;18.70;99.90;;;;;;5094918;28;19924;-65
2022/08/12 06:10:29;;;;;;;8.23;5.97;;;18.70;99.90;;;;;;5080065;28;20044;-62
2022/08/12 06:13:04;;;;;;;7.07;6.32;;;18.70;99.90;;;;;;5095417;28;20050;-65
2022/08/12 06:15:33;;;;;;;8.07;5.85;;;18.70;99.90;;;;;;5077484;28;20483;-65
2022/08/12 06:18:07;;;;;;;7.45;5.68;;;18.70;99.90;;;;;;5085555;28;20056;-65
2022/08/12 06:20:42;;;;;;;8.68;5.85;;;18.70;99.90;;;;;;5098108;28;20044;-65
2022/08/12 06:23:10;;;;;;;10.90;6.38;;;18.80;99.90;;;;;;5113921;28;20077;-65
2022/08/12 06:25:37;;;;;;;7.80;6.03;;;18.80;99.90;;;;;;5097361;28;20048;-65
2022/08/12 06:28:14;;;;;;;8.82;6.07;;;18.80;99.90;;;;;;5114716;28;20498;-65
2022/08/12 06:30:41;;;;;;;10.45;6.80;;;19.00;99.90;;;;;;5114079;28;20501;-65
2022/08/12 06:33:08;;;;;;;8.68;6.13;;;19.00;99.90;;;;;;5096765;28;20054;-65
2022/08/12 06:35:56;;;;;;;10.48;6.47;;;19.10;99.90;;;;;;5086286;28;20043;-65
2022/08/12 06:38:25;;;;;;;14.68;7.25;;;19.10;99.90;;;;;;5097433;28;20130;-65
2022/08/12 06:43:44;;;;;;;13.55;7.30;;;19.30;99.90;;;;;;5113777;28;20483;-65
2022/08/12 06:46:31;;;;;;;13.13;7.43;;;19.40;99.90;;;;;;5114331;28;20050;-65
2022/08/12 06:48:58;;;;;;;14.13;6.93;;;19.50;99.90;;;;;;5112414;28;20040;-65
2022/08/12 06:51:28;;;;;;;12.18;7.43;;;19.70;99.90;;;;;;5113488;28;20050;-65
2022/08/12 06:53:56;;;;;;;10.50;6.22;;;19.80;99.90;;;;;;5113153;28;20483;-65
2022/08/12 06:56:23;;;;;;;18.67;7.03;;;20.00;99.90;;;;;;5114917;28;20086;-65
2022/08/12 06:59:12;;;;;;;11.88;6.78;;;20.10;99.90;;;;;;5111813;28;20047;-65
2022/08/12 07:01:39;;;;;;;14.70;7.90;;;20.30;99.90;;;;;;5093117;28;20051;-64
2022/08/12 07:04:16;;;;;;;19.60;7.20;;;20.40;99.90;;;;;;5093882;28;20059;-65
2022/08/12 07:07:04;;;;;;;8.48;5.95;;;20.60;99.90;;;;;;5079015;28;20052;-65
2022/08/12 07:09:31;;;;;;;15.07;6.70;;;20.70;99.90;;;;;;5076264;28;20083;-65
2022/08/12 07:12:18;;;;;;;10.52;6.45;;;20.90;99.90;;;;;;5092518;28;20047;-65
2022/08/12 07:14:49;;;;;;;11.60;6.35;;;21.00;99.90;;;;;;5092408;28;20048;-65
2022/08/12 07:17:16;;;;;;;7.53;5.30;;;21.20;99.90;;;;;;5094930;28;20039;-65
2022/08/12 07:19:45;;;;;;;11.18;6.65;;;21.30;99.90;;;;;;5112035;28;20055;-65
2022/08/12 07:22:14;;;;;;;10.38;6.13;;;21.40;99.90;;;;;;5093689;28;20054;-65
2022/08/12 07:24:42;;;;;;;13.10;6.97;;;21.50;99.90;;;;;;5092586;28;20052;-65
2022/08/12 07:27:08;;;;;;;13.60;7.47;;;21.60;99.90;;;;;;5092107;28;20078;-65
2022/08/12 07:29:35;;;;;;;9.85;6.78;;;21.60;99.90;;;;;;5091991;28;20160;-63
2022/08/12 07:32:23;;;;;;;12.23;6.60;;;21.60;99.90;;;;;;5092786;28;20067;-62
2022/08/12 07:34:55;;;;;;;11.90;6.40;;;21.70;99.90;;;;;;5092241;28;20094;-62
2022/08/12 07:37:22;;;;;;;11.52;6.15;;;21.80;99.90;;;;;;5078246;28;20417;-65
2022/08/12 07:39:49;;;;;;;11.15;6.18;;;21.90;99.90;;;;;;5112265;28;20505;-65
2022/08/12 07:42:26;;;;;;;13.00;5.80;;;22.00;99.90;;;;;;5112231;28;20054;-66
2022/08/12 07:44:54;;;;;;;12.10;5.95;;;22.10;99.90;;;;;;5112726;28;20483;-63
2022/08/12 07:47:21;;;;;;;11.95;6.25;;;22.20;99.90;;;;;;5091678;28;20044;-66
2022/08/12 07:49:48;;;;;;;12.90;6.45;;;22.30;99.90;;;;;;5100690;28;20133;-72
2022/08/12 07:52:34;;;;;;;17.00;6.80;;;22.30;99.90;;;;;;5091548;28;20048;-72
2022/08/12 07:55:01;;;;;;;11.20;5.63;;;22.40;99.90;;;;;;5103530;28;20062;-76
2022/08/12 07:57:28;;;;;;;10.00;6.55;;;22.50;99.90;;;;;;5112289;28;20047;-74
2022/08/12 07:59:55;;;;;;;8.85;6.30;;;22.60;99.90;;;;;;5092029;28;20402;-74
2022/08/12 08:02:22;;;;;;;13.35;6.40;;;22.70;99.90;;;;;;5110091;28;20059;-73
2022/08/12 08:04:55;;;;;;;13.15;5.90;;;22.80;99.90;;;;;;5095599;28;20051;-74
2022/08/12 08:07:23;;;;;;;11.27;6.50;;;22.80;99.90;;;;;;5094443;28;20044;-69
2022/08/12 08:09:56;;;;;;;14.65;6.55;;;22.90;99.90;;;;;;5073495;28;20043;-75
2022/08/12 08:15:11;;;;;;;11.10;6.07;;;23.00;99.90;;;;;;5109375;28;20051;-73
2022/08/12 08:17:38;;;;;;;13.45;6.60;;;23.10;99.90;;;;;;5090524;28;20134;-68
2022/08/12 08:20:06;;;;;;;16.90;6.38;;;23.20;99.90;;;;;;5112813;28;20048;-71
2022/08/12 08:22:37;;;;;;;13.30;6.57;;;23.20;99.90;;;;;;5109286;28;20036;-70
2022/08/12 08:25:08;;;;;;;10.88;6.45;;;23.30;99.90;;;;;;5105446;28;20358;-71
2022/08/12 08:28:00;;;;;;;16.98;7.05;;;23.50;99.90;;;;;;5086153;28;20055;-73
2022/08/12 08:30:28;;;;;;;22.83;6.38;;;23.50;99.90;;;;;;5077532;28;20047;-73
2022/08/12 08:32:55;;;;;;;11.93;6.07;;;23.60;99.90;;;;;;5097052;28;20483;-70
2022/08/12 08:35:23;;;;;;;10.57;6.95;;;23.60;99.90;;;;;;5096726;28;20147;-70
2022/08/12 08:38:10;;;;;;;13.90;6.32;;;23.60;99.90;;;;;;5100607;28;20123;-74
2022/08/12 08:43:26;;;;;;;13.65;6.47;;;23.70;99.90;;;;;;5101294;28;20131;-73
2022/08/12 08:46:10;;;;;;;10.95;6.13;;;23.80;99.90;;;;;;5104458;28;20097;-70
2022/08/12 08:48:37;;;;;;;30.63;16.98;;;23.80;99.90;;;;;;5082624;28;20402;-70
2022/08/12 08:51:04;;;;;;;14.95;5.85;;;23.90;99.90;;;;;;5096369;28;20853;-74
2022/08/12 08:53:32;;;;;;;23.00;12.80;;;24.00;99.90;;;;;;5099669;28;20051;-70
2022/08/12 08:55:59;;;;;;;13.57;7.05;;;24.10;99.90;;;;;;5095008;28;20059;-77
2022/08/12 08:58:31;;;;;;;11.75;5.72;;;24.10;99.90;;;;;;5100610;28;20051;-74
2022/08/12 09:00:59;;;;;;;12.43;5.28;;;24.20;99.90;;;;;;5098709;28;20043;-72
2022/08/12 09:03:26;;;;;;;14.65;5.30;;;24.20;99.90;;;;;;5099469;28;20126;-71
2022/08/12 09:06:13;;;;;;;12.18;5.20;;;24.20;99.90;;;;;;5098795;28;20066;-72
2022/08/12 09:08:43;;;;;;;11.85;5.13;;;24.30;99.90;;;;;;5085107;28;20134;-72
2022/08/12 09:14:18;;;;;;;10.45;5.35;;;24.50;99.90;;;;;;5105824;28;20548;-74
2022/08/12 09:16:55;;;;;;;9.90;4.63;;;24.60;99.90;;;;;;5107289;28;20044;-74
2022/08/12 09:19:22;;;;;;;8.15;4.22;;;24.60;99.90;;;;;;5086936;28;20102;-72
2022/08/12 09:21:53;;;;;;;20.20;4.75;;;24.60;99.90;;;;;;5100150;28;20055;-71
2022/08/12 09:24:21;;;;;;;7.07;3.97;;;24.60;99.90;;;;;;5102316;28;20047;-72
2022/08/12 09:26:48;;;;;;;11.25;4.72;;;24.70;99.90;;;;;;5104866;28;20130;-73
2022/08/12 09:29:20;;;;;;;12.70;4.85;;;24.80;99.90;;;;;;5107606;28;20044;-74
2022/08/12 09:32:08;;;;;;;11.93;4.30;;;24.90;99.90;;;;;;5093639;28;20048;-68
2022/08/12 09:34:55;;;;;;;9.68;4.40;;;25.10;99.90;;;;;;5100791;28;20531;-73
2022/08/12 09:37:25;;;;;;;12.95;4.97;;;25.10;99.90;;;;;;5101939;28;20804;-72
2022/08/12 09:39:53;;;;;;;16.58;5.28;;;25.20;99.90;;;;;;5101044;28;20122;-69
2022/08/12 09:45:40;;;;;;;11.70;4.15;;;25.60;99.90;;;;;;5102285;28;20405;-69
2022/08/12 09:48:28;;;;;;;8.68;4.18;;;25.70;99.90;;;;;;5090550;28;20491;-74
2022/08/12 09:51:07;;;;;;;13.93;4.80;;;25.70;99.90;;;;;;5085576;28;20048;-72
2022/08/12 09:53:36;;;;;;;12.23;3.72;;;25.80;99.90;;;;;;5087407;28;20491;-73
2022/08/12 09:56:06;;;;;;;7.93;3.97;;;25.80;99.90;;;;;;5088115;28;20089;-71
2022/08/12 09:58:53;;;;;;;9.23;4.63;;;25.90;99.90;;;;;;5088336;28;20047;-73
2022/08/12 10:01:27;;;;;;;16.63;5.22;;;26.00;99.90;;;;;;5103045;28;20075;-73
2022/08/12 10:04:14;;;;;;;14.05;4.75;;;26.10;99.90;;;;;;5081551;28;20052;-70
2022/08/12 10:06:46;;;;;;;17.00;6.30;;;26.30;99.90;;;;;;5100706;28;20072;-70
2022/08/12 10:09:21;;;;;;;15.82;6.90;;;26.30;99.90;;;;;;5099501;28;20075;-72
2022/08/12 10:14:56;;;;;;;9.30;4.15;;;26.40;99.90;;;;;;5099743;28;20051;-71
2022/08/12 10:17:23;;;;;;;11.77;4.35;;;26.50;99.90;;;;;;5087128;28;20051;-69
2022/08/12 10:19:51;;;;;;;11.88;5.15;;;26.60;99.90;;;;;;5105721;28;20039;-68
2022/08/12 10:22:22;;;;;;;11.75;3.70;;;26.60;99.90;;;;;;5097665;28;20134;-69
2022/08/12 10:30:57;;;;;;;7.20;3.72;;;26.80;99.90;;;;;;5104662;28;20407;-72
2022/08/12 10:33:29;;;;;;;5.50;3.35;;;26.90;99.90;;;;;;5097448;28;20067;-76
2022/08/12 10:36:00;;;;;;;17.50;4.38;;;26.90;99.90;;;;;;5105336;28;20089;-79
2022/08/12 10:38:28;;;;;;;8.23;3.45;;;27.10;99.90;;;;;;5096956;28;20071;-76
2022/08/12 10:44:14;;;;;;;14.95;4.40;;;27.30;96.60;;;;;;5103297;28;20052;-73
2022/08/12 10:46:44;;;;;;;12.35;4.00;;;27.50;96.00;;;;;;5084472;28;20731;-73
2022/08/12 10:49:16;;;;;;;6.57;3.35;;;27.60;92.60;;;;;;5104486;28;20043;-69
2022/08/12 10:52:07;;;;;;;7.82;3.30;;;27.70;93.00;;;;;;5089804;28;20048;-72
2022/08/12 10:54:54;;;;;;;8.00;3.70;;;27.90;88.40;;;;;;5084876;28;20076;-70
2022/08/12 10:57:25;;;;;;;5.53;3.38;;;27.90;90.30;;;;;;5092319;28;20050;-63
2022/08/12 11:00:13;;;;;;;8.27;4.07;;;28.00;90.50;;;;;;5105114;28;20047;-65
2022/08/12 11:03:00;;;;;;;;;;;28.10;90.10;;;;;;5096917;28;20044;-65
2022/08/12 11:05:47;;;;;;;15.98;5.20;;;28.20;83.50;;;;;;5108621;28;19923;-66
2022/08/12 11:08:39;;;;;;;8.05;3.67;;;28.20;85.60;;;;;;5094608;28;20036;-65
2022/08/12 11:11:10;;;;;;;5.95;3.72;;;28.20;84.50;;;;;;5079548;28;20055;-65
2022/08/12 11:13:40;;;;;;;4.03;2.88;;;28.30;80.80;;;;;;5108527;28;20047;-65
2022/08/12 11:16:18;;;;;;;8.82;3.40;;;28.50;78.30;;;;;;5106985;28;20449;-65
2022/08/12 11:18:49;;;;;;;10.25;4.10;;;28.50;77.30;;;;;;5107708;28;20101;-65
2022/08/12 11:21:21;;;;;;;7.13;3.50;;;28.50;76.60;;;;;;5110670;28;20122;-66
2022/08/12 11:24:08;;;;;;;8.80;3.60;;;28.60;78.10;;;;;;5088351;28;20438;-66
2022/08/12 11:26:55;;;;;;;6.10;3.30;;;28.60;72.10;;;;;;5098273;28;20036;-66
2022/08/12 11:29:27;;;;;;;7.63;3.58;;;28.70;72.20;;;;;;5102457;28;20110;-66
2022/08/12 11:32:14;;;;;;;5.47;3.10;;;28.70;70.60;;;;;;5106119;28;20494;-65
2022/08/12 11:34:41;;;;;;;5.00;3.42;;;28.80;69.60;;;;;;5106777;28;20039;-66
2022/08/12 11:37:19;;;;;;;6.72;3.38;;;28.90;67.80;;;;;;5104637;28;20118;-67
2022/08/12 11:40:06;;;;;;;7.68;3.30;;;28.90;66.90;;;;;;5110914;27;20059;-65
2022/08/12 11:42:34;;;;;;;9.02;3.05;;;29.10;66.30;;;;;;5112246;28;20483;-65
2022/08/12 11:45:12;;;;;;;9.63;3.53;;;29.10;65.90;;;;;;5109470;28;20842;-65
2022/08/12 11:47:43;;;;;;;4.63;3.03;;;29.10;63.90;;;;;;5093172;28;20230;-79
2022/08/12 11:50:15;;;;;;;9.05;3.58;;;29.10;63.30;;;;;;5079866;28;20046;-71
2022/08/12 11:52:58;;;;;;;6.18;3.65;;;29.10;63.80;;;;;;5086233;28;20071;-70
2022/08/12 11:55:26;;;;;;;10.93;4.40;;;29.10;61.70;;;;;;5109037;28;20414;-70
2022/08/12 11:57:55;;;;;;;9.32;3.83;;;29.20;60.50;;;;;;5110723;28;20487;-72
2022/08/12 12:00:42;;;;;;;9.98;3.30;;;29.20;59.80;;;;;;5094775;28;20052;-73
2022/08/12 12:03:29;;;;;;;9.02;3.30;;;29.40;59.70;;;;;;5107803;28;20061;-71
2022/08/12 12:06:13;;;;;;;14.27;3.58;;;29.50;59.80;;;;;;5102206;28;20438;-68
2022/08/12 12:08:43;;;;;;;7.35;3.10;;;29.50;59.50;;;;;;5102601;28;20056;-72
2022/08/12 12:11:17;;;;;;;6.45;2.78;;;29.60;59.60;;;;;;5102641;28;20127;-69
2022/08/12 12:13:45;;;;;;;5.18;2.97;;;29.60;59.40;;;;;;5102990;28;20047;-68
2022/08/12 12:16:31;;;;;;;6.27;2.67;;;29.60;58.60;;;;;;5076587;28;20051;-69
2022/08/12 12:19:07;;;;;;;4.70;2.80;;;29.70;59.10;;;;;;5091847;28;20122;-70
2022/08/12 12:21:36;;;;;;;3.90;3.03;;;29.70;58.50;;;;;;5093499;28;20044;-75
2022/08/12 12:24:17;;;;;;;9.52;2.95;;;29.80;58.50;;;;;;5084247;28;20487;-72
2022/08/12 12:26:49;;;;;;;6.85;2.75;;;29.90;57.10;;;;;;5109729;28;20422;-72
2022/08/12 12:29:30;;;;;;;5.82;3.05;;;29.90;58.00;;;;;;5108768;28;20051;-74
2022/08/12 12:32:18;;;;;;;4.65;2.50;;;30.10;57.60;;;;;;5085957;28;20051;-70
2022/08/12 12:34:55;;;;;;;3.72;3.00;;;30.10;56.40;;;;;;5080784;28;20055;-68
2022/08/12 12:37:59;;;;;;;9.15;7.70;;;30.00;55.20;;;;;;5108322;28;20051;-70
2022/08/12 12:40:39;;;;;;;18.98;17.05;;;30.00;54.40;;;;;;5110853;28;20501;-72
2022/08/12 12:43:06;;;;;;;12.35;9.98;;;29.90;55.50;;;;;;5107511;28;20166;-72
2022/08/12 12:45:34;;;;;;;10.77;4.35;;;30.00;55.80;;;;;;5104401;28;20043;-72
2022/08/12 12:48:03;;;;;;;7.83;4.00;;;30.00;55.50;;;;;;5090303;28;20043;-72
2022/08/12 12:50:31;;;;;;;;;;;30.00;55.90;;;;;;5084080;28;20291;-71
2022/08/12 12:53:02;;;;;;;6.55;2.97;;;30.00;55.60;;;;;;5107015;28;20301;-72
2022/08/12 12:55:30;;;;;;;4.45;2.83;;;30.00;56.50;;;;;;5090939;28;20052;-72
2022/08/12 12:58:03;;;;;;;4.88;3.10;;;30.00;55.70;;;;;;5108130;28;20475;-69
2022/08/12 13:00:31;;;;;;;6.82;2.35;;;30.00;56.80;;;;;;5081255;28;20069;-81
2022/08/12 13:03:01;;;;;;;7.32;2.92;;;30.10;54.90;;;;;;5066888;28;20097;-80
2022/08/12 13:05:30;;;;;;;8.80;3.05;;;30.20;54.90;;;;;;5100006;28;20123;-79
2022/08/12 13:08:25;;;;;;;6.63;3.47;;;30.30;56.10;;;;;;5109791;28;20054;-78
2022/08/12 13:11:02;;;;;;;12.55;3.25;;;30.40;54.30;;;;;;5106447;28;20040;-80
2022/08/12 13:13:35;;;;;;;7.68;2.75;;;30.30;54.50;;;;;;5109756;28;20047;-78
2022/08/12 13:16:24;;;;;;;4.93;2.25;;;30.30;54.60;;;;;;5090545;28;20048;-79
2022/08/12 13:18:52;;;;;;;4.80;2.70;;;30.40;54.20;;;;;;5107021;28;20051;-79
2022/08/12 13:21:19;;;;;;;15.23;3.40;;;30.50;54.00;;;;;;5095156;28;20113;-79
2022/08/12 13:24:02;;;;;;;5.25;2.55;;;30.50;54.70;;;;;;5105156;28;20096;-71
2022/08/12 13:26:39;;;;;;;9.77;4.50;;;30.50;54.30;;;;;;5093219;28;20727;-71
2022/08/12 13:29:06;;;;;;;6.20;3.38;;;30.60;54.20;;;;;;5099606;28;20056;-75
2022/08/12 13:31:37;;;;;;;6.30;2.80;;;30.50;54.00;;;;;;5095014;28;20120;-70
2022/08/12 13:34:24;;;;;;;7.38;2.65;;;30.50;54.10;;;;;;5080592;28;20044;-68
2022/08/12 13:37:03;;;;;;;5.55;2.78;;;30.40;54.50;;;;;;5096196;28;20127;-67
2022/08/12 13:39:36;;;;;;;5.40;2.53;;;30.50;54.20;;;;;;5096190;28;20044;-73
2022/08/12 13:42:08;;;;;;;4.43;2.88;;;30.50;52.30;;;;;;5100341;28;20074;-71
2022/08/12 13:44:40;;;;;;;7.50;3.78;;;30.50;53.40;;;;;;5097601;28;20052;-72
2022/08/12 13:47:07;;;;;;;8.88;2.72;;;30.50;54.20;;;;;;5094204;28;20177;-75
2022/08/12 13:49:45;;;;;;;6.32;2.90;;;30.50;52.90;;;;;;5085369;28;20056;-74
2022/08/12 13:52:22;;;;;;;8.13;3.13;;;30.50;53.90;;;;;;5095731;28;20482;-71
2022/08/12 13:54:49;;;;;;;4.95;2.80;;;30.50;53.10;;;;;;5101032;28;20089;-70
2022/08/12 13:57:24;;;;;;;9.95;3.05;;;30.40;52.70;;;;;;5096561;28;20122;-67
2022/08/12 13:59:53;;;;;;;10.68;3.97;;;30.40;53.50;;;;;;5082712;28;20075;-67
2022/08/12 14:02:27;;;;;;;7.57;5.05;;;30.40;53.60;;;;;;5105243;28;20043;-71
2022/08/12 14:04:54;;;;;;;5.53;3.08;;;30.40;53.80;;;;;;5103509;28;20071;-72
2022/08/12 14:07:23;;;;;;;6.20;2.92;;;30.50;53.50;;;;;;5100261;28;20069;-68
2022/08/12 14:12:43;;;;;;;7.03;2.90;;;30.40;52.40;;;;;;5090540;28;20411;-72
2022/08/12 14:15:24;;;;;;;12.63;11.20;;;30.30;53.20;;;;;;5103123;28;20052;-73
2022/08/12 14:18:16;;;;;;;9.20;3.70;;;30.30;53.10;;;;;;5104828;28;20075;-74
2022/08/12 14:20:49;;;;;;;4.72;3.05;;;30.30;52.40;;;;;;5105228;28;20138;-74
2022/08/12 14:23:18;;;;;;;8.40;2.83;;;30.30;52.30;;;;;;5071539;28;20048;-74
2022/08/12 14:26:08;;;;;;;9.50;2.83;;;30.30;52.30;;;;;;5103164;28;20063;-74
2022/08/12 14:28:38;;;;;;;4.05;2.83;;;30.30;52.20;;;;;;5100043;28;20133;-73
2022/08/12 14:31:13;;;;;;;5.45;2.70;;;30.30;52.10;;;;;;5090222;28;20048;-75
2022/08/12 14:33:47;;;;;;;8.13;2.63;;;30.40;52.00;;;;;;5081932;28;20055;-77
2022/08/12 14:36:24;;;;;;;6.25;2.47;;;30.40;51.80;;;;;;5081322;28;20135;-76
2022/08/12 14:38:53;;;;;;;4.93;2.15;;;30.30;51.30;;;;;;5083008;28;20048;-77
2022/08/12 14:41:21;;;;;;;10.80;7.07;;;30.30;51.50;;;;;;5089337;28;20082;-77
2022/08/12 14:44:03;;;;;;;8.38;5.45;;;30.30;50.70;;;;;;5102355;28;20043;-76
2022/08/12 14:46:54;;;;;;;8.00;4.22;;;30.30;51.50;;;;;;5102023;28;20036;-77
2022/08/12 14:49:22;;;;;;;9.27;3.38;;;30.20;50.80;;;;;;5099878;28;20513;-77
2022/08/12 14:52:09;;;;;;;4.65;3.00;;;30.20;51.00;;;;;;5097001;28;20043;-74
2022/08/12 14:54:57;;;;;;;9.55;2.72;;;30.10;51.10;;;;;;5100160;28;20043;-71
2022/08/12 14:57:54;;;;;;;15.00;7.97;;;30.10;51.30;;;;;;5103983;28;20470;-75
2022/08/12 15:03:28;;;;;;;7.90;3.35;;;30.30;51.70;;;;;;5099193;28;20052;-73
2022/08/12 15:06:18;;;;;;;6.15;2.83;;;30.10;51.50;;;;;;5082413;28;20040;-77
2022/08/12 15:09:05;;;;;;;8.88;3.03;;;30.10;51.90;;;;;;5097414;28;20048;-74
2022/08/12 15:11:35;;;;;;;7.93;4.60;;;30.20;51.80;;;;;;5082242;28;20077;-77
2022/08/12 15:14:26;;;;;;;14.88;6.07;;;30.10;52.00;;;;;;5084367;28;20163;-74